createdAt,value
2022-08-19T00:01:14.628Z,9.20
2022-08-19T00:06:30.274Z,8.32
2022-08-19T00:11:32.980Z,10.13
2022-08-19T00:16:35.708Z,8.43
2022-08-19T00:21:42.276Z,11.57
2022-08-19T00:26:46.360Z,10.60
2022-08-19T00:31:50.672Z,9.55
2022-08-19T00:41:56.239Z,11.43
2022-08-19T00:47:01.057Z,11.15
2022-08-19T00:52:10.755Z,10.00
2022-08-19T00:57:17.676Z,9.90
2022-08-19T01:02:20.451Z,9.07
2022-08-19T01:07:23.919Z,9.13
2022-08-19T01:12:26.682Z,10.95
2022-08-19T01:17:29.400Z,10.18
2022-08-19T01:22:35.227Z,9.13
2022-08-19T01:27:43.962Z,9.93
2022-08-19T01:32:48.163Z,9.07
2022-08-19T01:38:01.777Z,10.18
2022-08-19T01:43:05.055Z,8.63
2022-08-19T01:48:08.173Z,9.15
2022-08-19T01:53:12.325Z,10.98
2022-08-19T01:58:22.307Z,10.48
2022-08-19T02:03:24.958Z,9.40
2022-08-19T02:08:28.543Z,10.65
2022-08-19T02:13:31.287Z,10.57
2022-08-19T02:18:34.639Z,12.05
2022-08-19T02:23:37.688Z,12.02
2022-08-19T02:28:41.805Z,16.38
2022-08-19T02:33:46.503Z,9.27
2022-08-19T02:38:54.262Z,11.30
2022-08-19T02:44:29.050Z,12.75
2022-08-19T02:49:21.613Z,11.88
2022-08-19T02:54:24.308Z,12.02
2022-08-19T02:59:27.444Z,9.00
2022-08-19T03:04:30.828Z,12.27
2022-08-19T03:09:33.419Z,10.45
2022-08-19T03:14:36.409Z,12.57
2022-08-19T03:19:39.284Z,10.75
2022-08-19T03:24:41.995Z,10.90
2022-08-19T03:29:45.005Z,13.15
2022-08-19T03:34:47.688Z,14.52
2022-08-19T03:39:50.342Z,13.10
2022-08-19T03:44:53.589Z,12.82
2022-08-19T03:49:56.504Z,13.88
2022-08-19T03:54:59.230Z,10.13
2022-08-19T04:00:03.941Z,9.85
2022-08-19T04:05:16.126Z,17.98
2022-08-19T04:10:18.767Z,12.95
2022-08-19T04:15:21.848Z,14.23
2022-08-19T04:20:24.457Z,11.88
2022-08-19T04:25:27.073Z,13.77
2022-08-19T04:30:29.637Z,15.70
2022-08-19T04:35:41.851Z,13.27
2022-08-19T04:41:06.125Z,15.60
2022-08-19T04:46:16.018Z,11.30
2022-08-19T04:51:36.451Z,13.80
2022-08-19T04:56:41.328Z,15.57
2022-08-19T05:01:44.438Z,11.38
2022-08-19T05:06:49.548Z,16.02
2022-08-19T05:11:54.558Z,18.75
2022-08-19T05:17:25.606Z,19.25
2022-08-19T05:22:35.566Z,20.15
2022-08-19T05:27:38.337Z,19.40
2022-08-19T05:32:41.612Z,25.75
2022-08-19T05:37:44.190Z,15.75
2022-08-19T05:42:46.981Z,18.98
2022-08-19T05:47:59.339Z,17.42
2022-08-19T05:53:01.946Z,19.67
2022-08-19T05:58:05.234Z,18.77
2022-08-19T06:03:12.459Z,26.30
2022-08-19T06:08:15.858Z,33.25
2022-08-19T06:13:20.402Z,45.90
2022-08-19T06:18:23.014Z,28.40
2022-08-19T06:23:26.641Z,48.28
2022-08-19T06:28:29.300Z,61.47
2022-08-19T06:33:31.822Z,55.40
2022-08-19T06:38:34.799Z,55.67
2022-08-19T06:43:38.142Z,61.88
2022-08-19T06:48:45.902Z,66.07
2022-08-19T06:58:58.265Z,86.53
2022-08-19T07:04:02.525Z,123.70
2022-08-19T07:09:06.755Z,135.10
2022-08-19T07:14:18.962Z,125.80
2022-08-19T07:19:23.602Z,117.50
2022-08-19T07:24:27.917Z,107.40
2022-08-19T07:29:39.794Z,87.55
2022-08-19T07:34:42.406Z,110.63
2022-08-19T07:39:45.802Z,105.07
2022-08-19T07:44:50.658Z,98.03
2022-08-19T07:49:53.647Z,103.07
2022-08-19T07:54:58.258Z,102.32
2022-08-19T08:00:01.154Z,92.13
2022-08-19T08:05:23.603Z,104.00
2022-08-19T08:10:26.697Z,96.78
2022-08-19T08:15:29.397Z,100.70
2022-08-19T08:20:32.366Z,115.20
2022-08-19T08:25:36.434Z,112.45
2022-08-19T08:30:45.219Z,104.95
2022-08-19T08:35:48.571Z,82.55
2022-08-19T08:41:08.207Z,74.78
2022-08-19T08:46:31.609Z,64.78
2022-08-19T08:56:49.466Z,66.35
2022-08-19T09:01:54.438Z,47.58
2022-08-19T09:07:00.297Z,46.80
2022-08-19T09:12:15.652Z,52.90
2022-08-19T09:17:31.648Z,50.25
2022-08-19T09:22:34.927Z,55.63
2022-08-19T09:27:53.936Z,40.25
2022-08-19T09:32:56.793Z,42.65
2022-08-19T09:38:00.647Z,46.40
2022-08-19T09:43:03.438Z,47.53
2022-08-19T09:48:18.912Z,41.33
2022-08-19T09:53:25.364Z,34.80
2022-08-19T09:58:28.671Z,39.75
2022-08-19T10:03:32.967Z,39.60
2022-08-19T10:08:37.466Z,37.15
2022-08-19T10:13:40.297Z,35.13
2022-08-19T10:18:49.616Z,33.88
2022-08-19T10:23:55.682Z,33.00
2022-08-19T10:28:58.923Z,32.20
2022-08-19T10:34:02.253Z,36.25
2022-08-19T10:39:07.720Z,31.13
2022-08-19T10:44:14.271Z,33.35
2022-08-19T10:49:17.249Z,33.75
2022-08-19T10:54:24.320Z,33.10
2022-08-19T10:59:36.230Z,33.58
2022-08-19T11:04:40.190Z,21.80
2022-08-19T11:09:47.523Z,27.02
2022-08-19T11:14:51.069Z,32.35
2022-08-19T11:19:53.640Z,30.73
2022-08-19T11:24:56.616Z,23.92
2022-08-19T11:29:59.282Z,24.23
2022-08-19T11:35:02.001Z,24.80
2022-08-19T11:40:06.013Z,24.70
2022-08-19T11:45:09.117Z,29.95
2022-08-19T11:50:11.762Z,31.75
2022-08-19T11:55:15.357Z,24.75
2022-08-19T12:00:17.931Z,28.02
2022-08-19T12:05:20.512Z,33.47
2022-08-19T12:10:26.437Z,30.30
2022-08-19T12:15:37.052Z,25.48
2022-08-19T12:20:41.665Z,29.60
2022-08-19T12:25:50.991Z,30.40
2022-08-19T12:30:54.231Z,26.92
2022-08-19T12:36:02.222Z,26.48
2022-08-19T12:41:08.013Z,42.03
2022-08-19T12:46:11.803Z,24.05
2022-08-19T12:51:21.535Z,35.05
2022-08-19T12:56:24.126Z,28.50
2022-08-19T13:01:26.760Z,35.28
2022-08-19T13:06:31.111Z,44.10
2022-08-19T13:11:36.508Z,34.00
2022-08-19T13:16:41.482Z,38.38
2022-08-19T13:21:44.045Z,50.65
2022-08-19T13:26:46.865Z,35.50
2022-08-19T13:32:07.787Z,38.45
2022-08-19T13:37:10.370Z,35.80
2022-08-19T13:42:14.541Z,36.78
2022-08-19T13:47:37.136Z,37.38
2022-08-19T13:52:41.042Z,30.02
2022-08-19T13:57:43.731Z,35.67
2022-08-19T14:02:47.935Z,30.02
2022-08-19T14:07:50.777Z,26.25
2022-08-19T14:12:56.419Z,28.45
2022-08-19T14:17:59.443Z,28.48
2022-08-19T14:23:02.812Z,33.65
2022-08-19T14:28:05.898Z,25.42
2022-08-19T14:33:09.490Z,26.88
2022-08-19T14:38:17.622Z,33.80
2022-08-19T14:43:20.738Z,33.33
2022-08-19T14:48:23.425Z,43.15
2022-08-19T14:53:31.706Z,39.30
2022-08-19T14:58:37.417Z,40.27
2022-08-19T15:03:42.280Z,44.40
2022-08-19T15:08:45.839Z,40.80
2022-08-19T15:13:49.158Z,43.50
2022-08-19T15:18:53.709Z,35.03
2022-08-19T15:23:59.375Z,30.65
2022-08-19T15:29:03.624Z,30.05
2022-08-19T15:34:07.052Z,28.10
2022-08-19T15:39:10.332Z,27.00
2022-08-19T15:44:18.564Z,25.92
2022-08-19T15:49:21.185Z,24.80
2022-08-19T15:54:23.803Z,25.97
2022-08-19T15:59:47.244Z,25.48
2022-08-19T16:05:11.299Z,26.75
2022-08-19T16:10:27.420Z,27.63
2022-08-19T16:15:31.014Z,29.88
2022-08-19T16:20:35.693Z,25.98
2022-08-19T16:25:39.428Z,32.22
2022-08-19T16:35:46.834Z,23.83
2022-08-19T16:41:02.852Z,17.50
2022-08-19T16:46:05.630Z,15.80
2022-08-19T16:51:09.367Z,17.10
2022-08-19T16:56:12.951Z,17.23
2022-08-19T17:01:34.413Z,15.98
2022-08-19T17:06:39.586Z,17.33
2022-08-19T17:11:42.391Z,12.98
2022-08-19T17:16:45.127Z,19.90
2022-08-19T17:21:48.335Z,14.43
2022-08-19T17:26:51.238Z,20.80
2022-08-19T17:31:55.287Z,16.58
2022-08-19T17:36:59.847Z,19.67
2022-08-19T17:42:03.020Z,20.42
2022-08-19T17:47:05.802Z,18.23
2022-08-19T17:52:10.211Z,18.02
2022-08-19T17:57:14.110Z,22.77
2022-08-19T18:02:16.997Z,20.45
2022-08-19T18:07:24.399Z,19.13
2022-08-19T18:12:27.177Z,18.80
2022-08-19T18:17:30.317Z,21.65
2022-08-19T18:22:37.272Z,19.83
2022-08-19T18:27:42.420Z,18.75
2022-08-19T18:32:47.841Z,18.15
2022-08-19T18:37:50.456Z,21.02
2022-08-19T18:43:11.473Z,19.48
2022-08-19T18:48:32.473Z,21.85
2022-08-19T18:53:38.231Z,18.52
2022-08-19T18:58:41.356Z,18.65
2022-08-19T19:03:52.948Z,17.50
2022-08-19T19:08:55.867Z,18.58
2022-08-19T19:14:02.486Z,20.33
2022-08-19T19:19:07.567Z,22.02
2022-08-19T19:24:14.077Z,20.70
2022-08-19T19:29:18.263Z,20.45
2022-08-19T19:34:29.749Z,13.60
2022-08-19T19:39:45.086Z,16.40
2022-08-19T19:44:51.821Z,18.30
2022-08-19T19:55:18.667Z,14.48
2022-08-19T20:00:22.149Z,11.83
2022-08-19T20:05:25.084Z,13.52
2022-08-19T20:10:27.985Z,11.73
2022-08-19T20:15:32.260Z,12.15
2022-08-19T20:20:35.490Z,11.70
2022-08-19T20:25:39.029Z,12.30
2022-08-19T20:30:45.583Z,11.93
2022-08-19T20:35:49.481Z,8.98
2022-08-19T20:40:52.931Z,11.02
2022-08-19T20:45:57.131Z,10.70
2022-08-19T20:50:59.702Z,9.60
2022-08-19T20:56:02.630Z,8.50
2022-08-19T21:01:06.768Z,11.63
2022-08-19T21:06:11.108Z,11.00
2022-08-19T21:11:16.403Z,7.85
2022-08-19T21:16:23.506Z,8.27
2022-08-19T21:21:26.294Z,9.68
2022-08-19T21:26:29.414Z,10.50
2022-08-19T21:31:32.579Z,9.30
2022-08-19T21:36:35.459Z,11.07
2022-08-19T21:41:40.685Z,15.73
2022-08-19T21:46:50.381Z,17.88
2022-08-19T21:51:53.409Z,10.43
2022-08-19T21:56:56.097Z,12.90
2022-08-19T22:02:15.717Z,10.95
2022-08-19T22:07:22.501Z,11.13
2022-08-19T22:12:32.117Z,13.90
2022-08-19T22:17:35.612Z,12.68
2022-08-19T22:22:40.148Z,15.07
2022-08-19T22:27:43.488Z,9.88
2022-08-19T22:32:48.484Z,11.98
2022-08-19T22:37:59.748Z,11.82
2022-08-19T22:43:15.182Z,35.88
2022-08-19T22:48:19.893Z,40.78
2022-08-19T22:53:22.431Z,47.78
2022-08-19T22:58:28.168Z,35.78
2022-08-19T23:03:31.560Z,27.70
2022-08-19T23:08:37.473Z,19.33
2022-08-19T23:13:41.775Z,17.80
2022-08-19T23:23:47.959Z,12.65
2022-08-19T23:29:09.274Z,16.77
2022-08-19T23:34:12.019Z,14.50
2022-08-19T23:39:14.640Z,12.80
2022-08-19T23:44:17.520Z,13.57
2022-08-19T23:49:21.029Z,14.75
2022-08-19T23:54:27.530Z,13.45
2022-08-19T23:59:46.456Z,12.95
